createdAt,value
2023-01-12T00:00:37.494Z,18.98
2023-01-12T00:03:10.868Z,22.05
2023-01-12T00:05:37.458Z,19.10
2023-01-12T00:08:05.318Z,18.65
2023-01-12T00:10:38.923Z,21.17
2023-01-12T00:13:11.779Z,21.23
2023-01-12T00:15:57.054Z,23.33
2023-01-12T00:18:29.813Z,18.95
2023-01-12T00:20:56.455Z,20.08
2023-01-12T00:23:24.094Z,25.20
2023-01-12T00:25:58.782Z,18.23
2023-01-12T00:28:25.426Z,17.90
2023-01-12T00:30:58.808Z,14.48
2023-01-12T00:33:25.435Z,18.65
2023-01-12T00:35:58.779Z,17.85
2023-01-12T00:38:32.836Z,14.35
2023-01-12T00:41:07.374Z,16.33
2023-01-12T00:43:59.751Z,14.43
2023-01-12T00:46:30.729Z,21.67
2023-01-12T00:48:57.357Z,18.85
2023-01-12T00:51:30.799Z,24.95
2023-01-12T00:54:03.855Z,17.23
2023-01-12T00:56:33.635Z,15.07
2023-01-12T00:59:00.427Z,21.90
2023-01-12T01:01:33.943Z,16.88
2023-01-12T01:04:01.094Z,15.77
2023-01-12T01:06:33.826Z,16.92
2023-01-12T01:09:00.528Z,12.73
2023-01-12T01:11:27.157Z,10.40
2023-01-12T01:14:01.789Z,16.45
2023-01-12T01:16:36.804Z,15.27
2023-01-12T01:19:12.820Z,15.43
2023-01-12T01:21:46.863Z,21.45
2023-01-12T01:24:14.673Z,18.17
2023-01-12T01:26:42.237Z,15.68
2023-01-12T01:29:15.842Z,17.33
2023-01-12T01:31:42.495Z,17.55
2023-01-12T01:34:09.125Z,17.30
2023-01-12T01:36:42.845Z,18.33
2023-01-12T01:39:16.192Z,12.98
2023-01-12T01:41:49.826Z,22.02
2023-01-12T01:44:31.561Z,15.98
2023-01-12T01:47:14.829Z,14.98
2023-01-12T01:49:49.285Z,11.60
2023-01-12T01:52:27.830Z,15.70
2023-01-12T01:54:57.210Z,13.75
2023-01-12T01:57:35.810Z,15.73
2023-01-12T02:00:05.741Z,16.58
2023-01-12T02:02:33.629Z,12.55
2023-01-12T02:05:07.871Z,21.88
2023-01-12T02:07:34.707Z,10.68
2023-01-12T02:10:02.204Z,14.35
2023-01-12T02:12:53.812Z,14.02
2023-01-12T02:15:43.762Z,18.50
2023-01-12T02:18:30.854Z,14.82
2023-01-12T02:21:19.163Z,13.13
2023-01-12T02:24:31.834Z,16.25
2023-01-12T02:27:40.403Z,12.95
2023-01-12T02:30:32.805Z,12.00
2023-01-12T02:33:05.322Z,13.05
2023-01-12T02:35:51.756Z,15.02
2023-01-12T02:38:54.833Z,13.35
2023-01-12T02:41:47.674Z,10.80
2023-01-12T02:44:32.841Z,13.57
2023-01-12T02:47:05.316Z,10.77
2023-01-12T02:49:44.779Z,12.93
2023-01-12T02:52:16.670Z,9.77
2023-01-12T02:54:55.838Z,9.43
2023-01-12T02:57:31.848Z,10.82
2023-01-12T03:00:07.798Z,9.52
2023-01-12T03:02:35.119Z,12.82
2023-01-12T03:05:08.802Z,11.20
2023-01-12T03:07:53.541Z,11.48
2023-01-12T03:10:48.775Z,10.10
2023-01-12T03:13:23.793Z,9.35
2023-01-12T03:16:01.819Z,12.45
2023-01-12T03:18:54.769Z,12.40
2023-01-12T03:21:30.510Z,8.43
2023-01-12T03:24:16.879Z,12.95
2023-01-12T03:26:49.406Z,12.40
2023-01-12T03:29:28.786Z,13.90
2023-01-12T03:32:02.839Z,8.98
2023-01-12T03:34:36.848Z,11.35
2023-01-12T03:37:32.556Z,14.98
2023-01-12T03:40:29.835Z,13.00
2023-01-12T03:43:23.939Z,10.55
2023-01-12T03:46:04.806Z,8.82
2023-01-12T03:48:43.869Z,10.48
2023-01-12T03:51:29.376Z,9.52
2023-01-12T03:54:03.805Z,11.88
2023-01-12T03:56:35.053Z,11.95
2023-01-12T03:59:10.807Z,12.48
2023-01-12T04:01:43.908Z,11.05
2023-01-12T04:04:16.764Z,13.25
2023-01-12T04:06:43.433Z,9.80
2023-01-12T04:09:16.821Z,9.80
2023-01-12T04:12:08.840Z,16.25
2023-01-12T04:14:35.870Z,6.70
2023-01-12T04:17:02.634Z,8.27
2023-01-12T04:19:35.805Z,13.57
2023-01-12T04:22:20.946Z,14.32
2023-01-12T04:24:54.860Z,11.18
2023-01-12T04:27:21.473Z,12.52
2023-01-12T04:29:48.119Z,6.65
2023-01-12T04:32:21.827Z,12.68
2023-01-12T04:34:54.758Z,9.25
2023-01-12T04:37:41.737Z,13.73
2023-01-12T04:40:11.731Z,13.50
2023-01-12T04:43:14.917Z,7.50
2023-01-12T04:45:43.634Z,9.95
2023-01-12T04:48:25.849Z,10.52
2023-01-12T04:50:52.529Z,11.23
2023-01-12T04:53:21.754Z,8.30
2023-01-12T04:55:55.815Z,9.37
2023-01-12T04:58:28.799Z,8.38
2023-01-12T05:01:01.779Z,8.48
2023-01-12T05:03:41.748Z,9.88
2023-01-12T05:06:08.535Z,12.15
2023-01-12T05:09:00.817Z,13.60
2023-01-12T05:11:28.763Z,14.10
2023-01-12T05:14:03.845Z,10.52
2023-01-12T05:16:30.790Z,8.73
2023-01-12T05:18:57.472Z,8.82
2023-01-12T05:21:31.901Z,8.05
2023-01-12T05:23:58.492Z,9.18
2023-01-12T05:26:31.764Z,5.35
2023-01-12T05:29:04.788Z,10.40
2023-01-12T05:31:34.145Z,10.20
2023-01-12T05:34:07.776Z,7.07
2023-01-12T05:36:40.869Z,7.10
2023-01-12T05:39:13.756Z,8.00
2023-01-12T05:42:12.758Z,10.73
2023-01-12T05:44:45.735Z,11.27
2023-01-12T05:47:12.374Z,9.45
2023-01-12T05:49:52.716Z,5.75
2023-01-12T05:52:19.365Z,9.77
2023-01-12T05:54:52.771Z,10.85
2023-01-12T05:57:19.410Z,8.73
2023-01-12T05:59:52.778Z,6.10
2023-01-12T06:02:21.531Z,10.05
2023-01-12T06:04:54.902Z,9.48
2023-01-12T06:07:21.685Z,8.05
2023-01-12T06:09:54.767Z,9.85
2023-01-12T06:12:39.874Z,6.30
2023-01-12T06:15:13.787Z,9.95
2023-01-12T06:17:40.495Z,10.88
2023-01-12T06:20:14.803Z,6.18
2023-01-12T06:22:41.436Z,7.65
2023-01-12T06:25:15.762Z,7.65
2023-01-12T06:27:42.355Z,10.07
2023-01-12T06:30:17.825Z,12.05
2023-01-12T06:32:50.814Z,12.73
2023-01-12T06:35:19.422Z,14.35
2023-01-12T06:38:03.801Z,10.35
2023-01-12T06:40:36.798Z,6.70
2023-01-12T06:43:03.391Z,8.25
2023-01-12T06:45:36.764Z,7.63
2023-01-12T06:48:03.546Z,9.10
2023-01-12T06:50:30.175Z,8.60
2023-01-12T06:53:06.749Z,7.18
2023-01-12T06:55:39.738Z,14.68
2023-01-12T06:58:06.344Z,11.45
2023-01-12T07:00:39.814Z,11.52
2023-01-12T07:03:06.430Z,8.68
2023-01-12T07:05:33.050Z,13.32
2023-01-12T07:08:09.784Z,6.55
2023-01-12T07:10:37.337Z,9.85
2023-01-12T07:13:10.760Z,12.27
2023-01-12T07:15:37.528Z,11.90
2023-01-12T07:18:10.774Z,9.75
2023-01-12T07:20:37.437Z,12.05
2023-01-12T07:23:10.739Z,8.05
2023-01-12T07:25:37.356Z,8.00
2023-01-12T07:28:10.736Z,9.68
2023-01-12T07:30:37.467Z,7.50
2023-01-12T07:33:18.671Z,8.68
2023-01-12T07:35:51.758Z,8.02
2023-01-12T07:38:32.768Z,10.52
2023-01-12T07:41:03.329Z,11.10
2023-01-12T07:43:36.878Z,10.75
2023-01-12T07:46:03.586Z,8.25
2023-01-12T07:48:30.745Z,9.13
2023-01-12T07:51:05.843Z,10.30
2023-01-12T07:53:32.425Z,8.57
2023-01-12T07:55:59.499Z,7.22
2023-01-12T07:58:33.827Z,9.07
2023-01-12T08:01:00.886Z,9.75
2023-01-12T08:03:27.912Z,8.15
2023-01-12T08:06:02.858Z,6.72
2023-01-12T08:08:29.474Z,6.93
2023-01-12T08:11:11.826Z,10.68
2023-01-12T08:13:40.595Z,9.85
2023-01-12T08:16:23.857Z,9.30
2023-01-12T08:19:08.908Z,9.80
2023-01-12T08:21:52.815Z,6.00
2023-01-12T08:24:25.184Z,7.93
2023-01-12T08:27:01.791Z,8.85
2023-01-12T08:29:34.490Z,4.45
2023-01-12T08:32:13.807Z,13.32
2023-01-12T08:34:43.673Z,7.93
2023-01-12T08:37:20.804Z,11.05
2023-01-12T08:39:48.117Z,9.38
2023-01-12T08:42:21.821Z,10.35
2023-01-12T08:44:54.744Z,7.97
2023-01-12T08:47:33.785Z,3.78
2023-01-12T08:50:00.833Z,7.13
2023-01-12T08:52:38.799Z,9.32
2023-01-12T08:55:05.954Z,13.10
2023-01-12T08:57:38.837Z,8.90
2023-01-12T09:00:12.798Z,7.65
2023-01-12T09:02:39.497Z,7.18
2023-01-12T09:05:06.505Z,8.48
2023-01-12T09:07:40.795Z,7.28
2023-01-12T09:10:08.021Z,6.68
2023-01-12T09:12:40.805Z,5.45
2023-01-12T09:15:07.915Z,8.77
2023-01-12T09:17:40.744Z,3.97
2023-01-12T09:20:13.772Z,8.23
2023-01-12T09:22:40.340Z,3.67
2023-01-12T09:25:07.080Z,8.23
2023-01-12T09:27:40.847Z,7.78
2023-01-12T09:30:08.267Z,4.55
2023-01-12T09:32:37.827Z,6.72
2023-01-12T09:35:11.957Z,5.72
2023-01-12T09:37:46.117Z,7.68
2023-01-12T09:40:21.762Z,4.60
2023-01-12T09:43:09.067Z,6.50
2023-01-12T09:46:00.920Z,8.63
2023-01-12T09:48:34.812Z,4.78
2023-01-12T09:51:11.439Z,5.75
2023-01-12T09:53:47.812Z,10.18
2023-01-12T09:56:30.798Z,7.82
2023-01-12T09:59:48.841Z,6.55
2023-01-12T10:02:15.844Z,9.13
2023-01-12T10:04:49.754Z,5.63
2023-01-12T10:07:18.453Z,7.88
2023-01-12T10:09:51.825Z,7.38
2023-01-12T10:12:30.740Z,5.95
2023-01-12T10:15:14.733Z,7.57
2023-01-12T10:17:51.683Z,5.85
2023-01-12T10:20:38.819Z,9.95
2023-01-12T10:23:08.151Z,9.15
2023-01-12T10:26:08.826Z,5.30
2023-01-12T10:28:37.047Z,11.27
2023-01-12T10:31:11.809Z,6.60
2023-01-12T10:33:38.400Z,8.35
2023-01-12T10:36:32.751Z,9.13
2023-01-12T10:39:03.567Z,7.30
2023-01-12T10:41:45.827Z,7.90
2023-01-12T10:44:15.765Z,5.30
2023-01-12T10:46:49.743Z,4.95
2023-01-12T10:49:24.695Z,10.18
2023-01-12T10:52:10.812Z,11.02
2023-01-12T10:54:41.423Z,9.80
2023-01-12T10:57:25.775Z,6.88
2023-01-12T11:00:01.843Z,6.55
2023-01-12T11:02:42.949Z,6.43
2023-01-12T11:05:44.756Z,10.07
2023-01-12T11:08:33.786Z,5.18
2023-01-12T11:11:21.749Z,10.90
2023-01-12T11:13:57.825Z,8.35
2023-01-12T11:17:04.767Z,7.47
2023-01-12T11:19:43.732Z,6.72
2023-01-12T11:22:18.487Z,6.70
2023-01-12T11:25:26.812Z,5.10
2023-01-12T11:28:01.785Z,8.00
2023-01-12T11:30:43.805Z,10.02
2023-01-12T11:33:24.703Z,5.45
2023-01-12T11:36:07.827Z,4.85
2023-01-12T11:38:51.754Z,4.80
2023-01-12T11:42:11.800Z,9.85
2023-01-12T11:45:02.334Z,4.72
2023-01-12T11:47:42.744Z,5.70
2023-01-12T11:50:26.475Z,7.47
2023-01-12T11:53:01.741Z,8.88
2023-01-12T11:55:48.729Z,6.93
2023-01-12T11:58:31.903Z,8.70
2023-01-12T12:01:02.240Z,8.57
2023-01-12T12:03:50.808Z,7.95
2023-01-12T12:06:35.828Z,6.68
2023-01-12T12:09:38.726Z,7.18
2023-01-12T12:12:16.905Z,6.53
2023-01-12T12:15:03.779Z,9.40
2023-01-12T12:18:12.816Z,5.90
2023-01-12T12:21:10.816Z,6.63
2023-01-12T12:23:56.140Z,4.70
2023-01-12T12:26:41.747Z,4.63
2023-01-12T12:29:40.940Z,5.55
2023-01-12T12:32:23.733Z,4.37
2023-01-12T12:35:20.735Z,6.93
2023-01-12T12:38:08.770Z,2.55
2023-01-12T12:41:20.830Z,4.60
2023-01-12T12:44:22.977Z,5.30
2023-01-12T12:47:05.718Z,7.40
2023-01-12T12:49:34.769Z,4.25
2023-01-12T12:52:08.773Z,2.42
2023-01-12T12:54:35.626Z,5.32
2023-01-12T12:57:10.757Z,2.95
2023-01-12T12:59:52.113Z,7.47
2023-01-12T13:03:00.870Z,4.53
2023-01-12T13:05:42.885Z,2.42
2023-01-12T13:08:29.807Z,6.85
2023-01-12T13:10:58.877Z,3.22
2023-01-12T13:13:45.738Z,4.85
2023-01-12T13:16:15.539Z,2.28
2023-01-12T13:18:59.863Z,1.83
2023-01-12T13:21:26.448Z,1.17
2023-01-12T13:24:29.854Z,1.05
2023-01-12T13:26:58.778Z,2.05
2023-01-12T13:29:34.862Z,2.10
2023-01-12T13:32:33.692Z,3.25
2023-01-12T13:35:41.745Z,0.93
2023-01-12T13:39:09.851Z,0.80
2023-01-12T13:42:09.063Z,1.90
2023-01-12T13:44:39.613Z,1.95
2023-01-12T13:47:34.783Z,1.02
2023-01-12T13:50:03.090Z,1.63
2023-01-12T13:52:39.925Z,2.05
2023-01-12T13:55:24.846Z,0.75
2023-01-12T13:58:22.736Z,1.50
2023-01-12T14:01:07.777Z,0.70
2023-01-12T14:04:03.869Z,1.25
2023-01-12T14:07:13.750Z,2.40
2023-01-12T14:10:14.374Z,2.28
2023-01-12T14:13:17.843Z,0.80
2023-01-12T14:16:02.992Z,0.57
2023-01-12T14:18:55.746Z,1.02
2023-01-12T14:21:27.029Z,3.47
2023-01-12T14:24:14.830Z,1.65
2023-01-12T14:26:41.630Z,2.53
2023-01-12T14:29:12.986Z,1.52
2023-01-12T14:31:50.868Z,3.00
2023-01-12T14:34:44.834Z,2.25
2023-01-12T14:37:33.747Z,2.63
2023-01-12T14:40:07.837Z,1.75
2023-01-12T14:42:59.740Z,1.48
2023-01-12T14:45:46.185Z,1.20
2023-01-12T14:48:49.825Z,0.75
2023-01-12T14:51:32.486Z,0.75
2023-01-12T14:54:28.777Z,2.80
2023-01-12T14:57:08.802Z,1.95
2023-01-12T14:59:42.452Z,0.63
2023-01-12T15:02:28.726Z,1.38
2023-01-12T15:04:59.072Z,2.13
2023-01-12T15:07:37.791Z,2.67
2023-01-12T15:10:10.183Z,1.83
2023-01-12T15:12:54.507Z,1.73
2023-01-12T15:15:24.248Z,8.15
2023-01-12T15:18:18.733Z,1.33
2023-01-12T15:21:11.832Z,11.18
2023-01-12T15:23:57.242Z,3.05
2023-01-12T15:26:30.797Z,1.02
2023-01-12T15:29:03.742Z,2.13
2023-01-12T15:31:36.206Z,1.10
2023-01-12T15:34:10.745Z,2.38
2023-01-12T15:36:37.362Z,1.58
2023-01-12T15:39:20.743Z,1.63
2023-01-12T15:42:12.849Z,1.85
2023-01-12T15:44:47.839Z,0.63
2023-01-12T15:47:22.814Z,0.65
2023-01-12T15:49:51.248Z,1.77
2023-01-12T15:52:30.797Z,0.70
2023-01-12T15:54:57.375Z,0.57
2023-01-12T15:57:30.819Z,0.70
2023-01-12T16:00:04.010Z,1.95
2023-01-12T16:02:38.162Z,0.57
2023-01-12T16:05:12.808Z,0.68
2023-01-12T16:07:39.434Z,4.05
2023-01-12T16:10:12.767Z,1.25
2023-01-12T16:12:39.511Z,1.15
2023-01-12T16:15:15.744Z,1.00
2023-01-12T16:17:42.398Z,1.48
2023-01-12T16:20:16.917Z,0.98
2023-01-12T16:22:44.221Z,4.07
2023-01-12T16:25:11.328Z,2.15
2023-01-12T16:27:45.731Z,1.88
2023-01-12T16:30:21.800Z,0.80
2023-01-12T16:32:48.428Z,0.85
2023-01-12T16:35:15.834Z,1.52
2023-01-12T16:37:49.746Z,3.25
2023-01-12T16:40:29.833Z,1.83
2023-01-12T16:43:03.807Z,0.80
2023-01-12T16:45:30.480Z,1.17
2023-01-12T16:47:57.700Z,2.10
2023-01-12T16:50:30.815Z,1.65
2023-01-12T16:52:57.418Z,1.77
2023-01-12T16:55:24.007Z,0.55
2023-01-12T16:57:56.831Z,1.20
2023-01-12T17:00:23.685Z,2.63
2023-01-12T17:02:50.916Z,0.75
2023-01-12T17:05:23.735Z,0.50
2023-01-12T17:07:50.521Z,0.55
2023-01-12T17:10:23.758Z,2.08
2023-01-12T17:12:59.063Z,0.90
2023-01-12T17:15:28.001Z,1.40
2023-01-12T17:18:02.871Z,0.88
2023-01-12T17:20:29.552Z,0.77
2023-01-12T17:22:56.299Z,0.50
2023-01-12T17:25:29.813Z,0.68
2023-01-12T17:27:56.406Z,3.13
2023-01-12T17:30:23.226Z,2.97
2023-01-12T17:32:56.799Z,1.58
2023-01-12T17:35:23.425Z,2.05
2023-01-12T17:38:09.754Z,1.92
2023-01-12T17:40:39.496Z,2.70
2023-01-12T17:43:14.798Z,2.58
2023-01-12T17:45:42.736Z,0.57
2023-01-12T17:48:18.801Z,0.95
2023-01-12T17:50:47.126Z,0.73
2023-01-12T17:53:14.580Z,1.55
2023-01-12T17:55:49.807Z,3.55
2023-01-12T17:58:22.855Z,0.77
2023-01-12T18:00:55.817Z,1.02
2023-01-12T18:03:22.621Z,2.05
2023-01-12T18:05:57.733Z,1.75
2023-01-12T18:08:35.790Z,0.77
2023-01-12T18:11:07.591Z,1.42
2023-01-12T18:13:45.713Z,1.20
2023-01-12T18:16:20.838Z,0.85
2023-01-12T18:18:47.645Z,0.95
2023-01-12T18:21:23.856Z,1.10
2023-01-12T18:23:58.734Z,1.50
2023-01-12T18:26:28.295Z,2.47
2023-01-12T18:29:03.736Z,2.28
2023-01-12T18:31:39.499Z,0.88
2023-01-12T18:34:16.800Z,1.48
2023-01-12T18:36:43.647Z,2.08
2023-01-12T18:39:31.750Z,1.35
2023-01-12T18:42:23.780Z,3.35
2023-01-12T18:44:50.382Z,1.40
2023-01-12T18:47:41.796Z,1.52
2023-01-12T18:50:34.725Z,3.80
2023-01-12T18:53:26.757Z,0.55
2023-01-12T18:55:55.529Z,0.47
2023-01-12T18:58:36.703Z,0.55
2023-01-12T19:01:14.226Z,2.50
2023-01-12T19:03:47.715Z,1.42
2023-01-12T19:06:20.197Z,1.80
2023-01-12T19:09:11.967Z,2.58
2023-01-12T19:11:46.972Z,2.05
2023-01-12T19:14:38.803Z,2.50
2023-01-12T19:17:37.904Z,2.88
2023-01-12T19:20:18.772Z,0.95
2023-01-12T19:23:03.917Z,2.00
2023-01-12T19:25:55.790Z,1.88
2023-01-12T19:28:38.262Z,3.55
2023-01-12T19:31:15.837Z,0.60
2023-01-12T19:33:45.481Z,1.40
2023-01-12T19:36:22.751Z,1.73
2023-01-12T19:39:13.703Z,0.77
2023-01-12T19:42:05.760Z,0.70
2023-01-12T19:44:38.722Z,0.93
2023-01-12T19:47:11.843Z,0.75
2023-01-12T19:49:38.461Z,2.42
2023-01-12T19:52:05.221Z,4.50
2023-01-12T19:54:38.825Z,2.72
2023-01-12T19:57:06.331Z,2.42
2023-01-12T19:59:32.966Z,4.28
2023-01-12T20:02:07.812Z,0.70
2023-01-12T20:04:34.634Z,0.93
2023-01-12T20:07:07.802Z,0.98
2023-01-12T20:09:34.504Z,1.13
2023-01-12T20:12:01.213Z,0.80
2023-01-12T20:14:35.184Z,0.50
2023-01-12T20:17:01.794Z,0.68
2023-01-12T20:19:28.443Z,1.08
2023-01-12T20:22:01.845Z,2.08
2023-01-12T20:24:29.223Z,2.15
2023-01-12T20:26:56.265Z,0.98
2023-01-12T20:29:29.849Z,1.17
2023-01-12T20:31:56.515Z,0.82
2023-01-12T20:34:23.160Z,0.57
2023-01-12T20:36:56.789Z,1.40
2023-01-12T20:39:30.859Z,0.77
2023-01-12T20:42:04.798Z,0.65
2023-01-12T20:44:32.349Z,2.00
2023-01-12T20:46:59.900Z,1.15
2023-01-12T20:49:32.816Z,1.08
2023-01-12T20:51:59.517Z,0.80
2023-01-12T20:54:26.171Z,1.65
2023-01-12T20:56:59.721Z,0.95
2023-01-12T20:59:26.475Z,0.77
2023-01-12T21:01:53.167Z,3.10
2023-01-12T21:04:26.756Z,2.20
2023-01-12T21:06:53.346Z,0.98
2023-01-12T21:09:26.822Z,0.98
2023-01-12T21:11:53.585Z,2.10
2023-01-12T21:14:20.206Z,1.23
2023-01-12T21:16:53.811Z,1.08
2023-01-12T21:19:20.693Z,0.90
2023-01-12T21:21:47.336Z,0.75
2023-01-12T21:24:20.852Z,0.70
2023-01-12T21:26:47.475Z,0.52
2023-01-12T21:29:14.100Z,1.65
2023-01-12T21:31:46.814Z,0.60
2023-01-12T21:34:19.716Z,1.02
2023-01-12T21:36:46.502Z,0.50
2023-01-12T21:39:26.736Z,1.67
2023-01-12T21:44:45.451Z,0.60
2023-01-12T21:47:12.086Z,1.38
2023-01-12T21:49:44.958Z,0.95
2023-01-12T21:52:11.785Z,0.85
2023-01-12T21:54:44.734Z,1.92
2023-01-12T21:57:11.341Z,4.28
2023-01-12T21:59:44.846Z,0.75
2023-01-12T22:02:11.848Z,2.60
2023-01-12T22:04:38.548Z,1.15
2023-01-12T22:07:11.774Z,2.58
2023-01-12T22:09:39.369Z,4.15
2023-01-12T22:12:12.806Z,0.75
2023-01-12T22:14:39.498Z,0.65
2023-01-12T22:17:06.079Z,0.95
2023-01-12T22:19:39.716Z,1.40
2023-01-12T22:22:06.375Z,0.70
2023-01-12T22:24:39.823Z,0.70
2023-01-12T22:27:06.405Z,0.80
2023-01-12T22:29:33.016Z,1.15
2023-01-12T22:32:05.771Z,0.80
2023-01-12T22:34:32.416Z,1.90
2023-01-12T22:37:05.730Z,1.45
2023-01-12T22:39:52.710Z,0.98
2023-01-12T22:42:26.735Z,0.95
2023-01-12T22:44:56.414Z,0.68
2023-01-12T22:47:30.497Z,0.70
2023-01-12T22:49:57.723Z,1.05
2023-01-12T22:52:30.719Z,0.70
2023-01-12T22:54:57.311Z,0.70
2023-01-12T22:57:30.721Z,0.70
2023-01-12T22:59:57.303Z,0.80
2023-01-12T23:02:48.948Z,1.20
2023-01-12T23:05:15.876Z,2.45
2023-01-12T23:07:48.869Z,0.50
2023-01-12T23:10:15.999Z,1.38
2023-01-12T23:13:08.803Z,1.25
2023-01-12T23:15:44.057Z,1.23
2023-01-12T23:18:17.933Z,0.70
2023-01-12T23:20:51.866Z,4.38
2023-01-12T23:23:24.829Z,1.02
2023-01-12T23:25:51.532Z,0.57
2023-01-12T23:28:24.817Z,2.95
2023-01-12T23:30:51.525Z,0.93
2023-01-12T23:33:24.859Z,0.77
2023-01-12T23:35:51.600Z,1.63
2023-01-12T23:38:38.887Z,1.67
2023-01-12T23:41:16.569Z,2.88
2023-01-12T23:43:49.816Z,1.90
2023-01-12T23:46:17.425Z,0.60
2023-01-12T23:48:50.883Z,0.80
2023-01-12T23:51:17.655Z,1.08
2023-01-12T23:53:51.818Z,0.80
2023-01-12T23:56:19.664Z,2.05
2023-01-12T23:58:53.859Z,0.70
